Time;durP1;ratioP1;P1;durP2;ratioP2;P2;SDS_P1;SDS_P2;PMS_P1;PMS_P2;Temp;Humidity;BMP_temperature;BMP_pressure;BME280_temperature;BME280_humidity;BME280_pressure;Samples;Min_cycle;Max_cycle;Signal;HPM_P1;HPM_P2
2023/01/27 00:00:54;;;;;;;9.18;5.72;;;;;;;;;;5033543;28;20060;-76
2023/01/27 00:03:20;;;;;;;10.25;5.80;;;;;;;;;;5033345;28;20053;-76
2023/01/27 00:05:46;;;;;;;12.88;6.20;;;;;;;;;;5029332;28;20045;-76
2023/01/27 00:08:13;;;;;;;10.48;6.18;;;;;;;;;;5032185;28;20467;-76
2023/01/27 00:10:39;;;;;;;16.77;6.70;;;;;;;;;;5028585;28;20038;-76
2023/01/27 00:15:50;;;;;;;14.13;6.03;;;;;;;;;;5029423;28;20500;-76
2023/01/27 00:18:16;;;;;;;16.00;5.97;;;;;;;;;;5021350;28;20307;-76
2023/01/27 00:26:16;;;;;;;18.23;5.57;;;;;;;;;;5029617;28;20045;-76
2023/01/27 00:28:43;;;;;;;10.93;5.30;;;;;;;;;;5028929;28;20073;-76
2023/01/27 00:34:00;;;;;;;15.20;5.25;;;;;;;;;;5013827;28;20056;-76
2023/01/27 00:36:27;;;;;;;11.70;5.30;;;;;;;;;;5049194;28;20053;-76
2023/01/27 00:38:53;;;;;;;8.73;4.53;;;;;;;;;;5020854;28;20073;-76
2023/01/27 00:41:19;;;;;;;10.13;4.43;;;;;;;;;;5014341;28;20068;-76
2023/01/27 00:43:54;;;;;;;9.23;4.45;;;;;;;;;;5032501;28;21145;-76
2023/01/27 00:46:22;;;;;;;10.82;5.15;;;;;;;;;;5021724;28;20037;-76
2023/01/27 00:48:48;;;;;;;12.07;4.45;;;;;;;;;;5033340;28;20121;-76
2023/01/27 00:51:14;;;;;;;14.23;4.72;;;;;;;;;;5033820;28;20041;-76
2023/01/27 00:53:40;;;;;;;10.25;4.60;;;;;;;;;;5032196;28;20042;-76
2023/01/27 00:56:07;;;;;;;9.45;3.88;;;;;;;;;;5033468;28;20129;-76
2023/01/27 00:58:33;;;;;;;13.52;4.07;;;;;;;;;;5029527;28;20053;-76
2023/01/27 01:01:00;;;;;;;13.10;4.07;;;;;;;;;;5022408;28;20096;-76
2023/01/27 01:03:30;;;;;;;7.93;3.60;;;;;;;;;;5031263;28;20523;-76
2023/01/27 01:05:56;;;;;;;13.02;4.20;;;;;;;;;;5021785;28;20081;-76
2023/01/27 01:08:22;;;;;;;8.43;3.65;;;;;;;;;;5017645;28;20514;-76
2023/01/27 01:10:48;;;;;;;8.75;3.53;;;;;;;;;;5022347;28;20047;-76
2023/01/27 01:13:14;;;;;;;11.15;3.80;;;;;;;;;;5018395;28;20124;-76
2023/01/27 01:15:41;;;;;;;10.43;3.60;;;;;;;;;;5012715;28;20349;-76
2023/01/27 01:18:08;;;;;;;10.48;3.28;;;;;;;;;;5014700;28;20046;-76
2023/01/27 01:20:38;;;;;;;10.27;3.50;;;;;;;;;;5028261;28;20392;-76
2023/01/27 01:23:05;;;;;;;13.18;3.40;;;;;;;;;;5024765;28;20412;-76
2023/01/27 01:25:31;;;;;;;10.55;3.45;;;;;;;;;;5017784;28;20190;-76
2023/01/27 01:27:57;;;;;;;11.45;3.58;;;;;;;;;;5032555;28;20073;-76
2023/01/27 01:30:25;;;;;;;8.85;3.42;;;;;;;;;;5035185;28;20075;-76
2023/01/27 01:32:52;;;;;;;8.57;3.50;;;;;;;;;;5019769;28;20049;-76
2023/01/27 01:35:18;;;;;;;9.50;3.05;;;;;;;;;;5037179;28;20067;-76
2023/01/27 01:37:44;;;;;;;9.88;3.17;;;;;;;;;;5024571;28;20065;-76
2023/01/27 01:40:13;;;;;;;12.35;3.00;;;;;;;;;;5017535;28;20176;-76
2023/01/27 01:42:54;;;;;;;6.95;3.00;;;;;;;;;;5020262;28;20128;-76
2023/01/27 01:45:43;;;;;;;7.05;3.10;;;;;;;;;;5030179;28;20099;-76
2023/01/27 01:48:15;;;;;;;9.80;2.78;;;;;;;;;;5026305;28;20539;-76
2023/01/27 01:50:44;;;;;;;7.68;3.22;;;;;;;;;;5036598;28;20087;-76
2023/01/27 01:53:11;;;;;;;10.38;2.90;;;;;;;;;;5028927;28;20495;-76
2023/01/27 01:55:39;;;;;;;8.57;2.92;;;;;;;;;;5030995;28;20046;-76
2023/01/27 01:58:06;;;;;;;7.60;2.85;;;;;;;;;;5020746;28;20042;-76
2023/01/27 02:00:32;;;;;;;9.25;2.70;;;;;;;;;;5022653;28;20073;-76
2023/01/27 02:02:58;;;;;;;5.45;2.47;;;;;;;;;;5035088;28;20095;-76
2023/01/27 02:05:27;;;;;;;7.80;2.60;;;;;;;;;;5024691;28;20049;-76
2023/01/27 02:07:53;;;;;;;7.63;2.50;;;;;;;;;;5024245;28;20135;-76
2023/01/27 02:10:19;;;;;;;9.13;2.90;;;;;;;;;;5031287;28;20476;-76
2023/01/27 02:12:45;;;;;;;13.27;3.17;;;;;;;;;;5035705;28;20451;-76
2023/01/27 02:15:11;;;;;;;8.75;2.60;;;;;;;;;;5018531;28;20042;-76
2023/01/27 02:17:37;;;;;;;8.65;2.60;;;;;;;;;;5028460;28;20068;-76
2023/01/27 02:20:22;;;;;;;10.30;2.45;;;;;;;;;;5018302;28;20049;-76
2023/01/27 02:23:11;;;;;;;8.18;2.60;;;;;;;;;;5022983;28;20444;-76
2023/01/27 02:25:42;;;;;;;10.27;3.15;;;;;;;;;;5022860;28;20049;-76
2023/01/27 02:28:08;;;;;;;7.57;2.38;;;;;;;;;;5029502;28;20129;-76
2023/01/27 02:30:34;;;;;;;7.20;2.30;;;;;;;;;;5026915;28;20045;-76
2023/01/27 02:33:00;;;;;;;5.70;2.28;;;;;;;;;;5035589;28;20073;-76
2023/01/27 02:35:38;;;;;;;6.22;2.40;;;;;;;;;;5036423;28;20103;-76
2023/01/27 02:38:06;;;;;;;8.40;2.20;;;;;;;;;;5028378;28;20465;-76
2023/01/27 02:40:32;;;;;;;6.90;2.40;;;;;;;;;;5022061;28;20444;-76
2023/01/27 02:42:58;;;;;;;6.80;2.20;;;;;;;;;;5024352;28;20488;-76
2023/01/27 02:45:25;;;;;;;5.40;2.30;;;;;;;;;;5029629;28;20384;-76
2023/01/27 02:47:51;;;;;;;6.75;2.30;;;;;;;;;;5032564;28;20041;-76
2023/01/27 02:50:17;;;;;;;4.15;2.30;;;;;;;;;;5044996;28;20487;-76
2023/01/27 02:52:43;;;;;;;4.13;2.42;;;;;;;;;;5026866;28;20042;-76
2023/01/27 02:55:09;;;;;;;4.60;2.10;;;;;;;;;;5023474;28;20053;-76
2023/01/27 02:57:35;;;;;;;4.05;2.13;;;;;;;;;;5041949;28;20041;-76
2023/01/27 03:00:01;;;;;;;3.75;2.13;;;;;;;;;;5040371;28;20163;-75
2023/01/27 03:02:29;;;;;;;2.70;2.20;;;;;;;;;;5017679;28;20400;-75
2023/01/27 03:04:59;;;;;;;5.45;2.60;;;;;;;;;;5031201;28;20053;-75
2023/01/27 03:07:25;;;;;;;4.82;2.35;;;;;;;;;;5031568;28;20042;-76
2023/01/27 03:09:51;;;;;;;7.32;2.75;;;;;;;;;;5023027;28;20041;-76
2023/01/27 03:12:20;;;;;;;8.25;2.65;;;;;;;;;;5020024;28;20052;-77
2023/01/27 03:20:23;;;;;;;12.13;3.03;;;;;;;;;;5035127;28;20441;-76
2023/01/27 03:22:49;;;;;;;13.05;2.65;;;;;;;;;;5027107;28;20049;-76
2023/01/27 03:25:15;;;;;;;6.13;2.70;;;;;;;;;;5015931;28;20045;-76
2023/01/27 03:27:41;;;;;;;3.83;2.30;;;;;;;;;;5029585;28;20037;-76
2023/01/27 03:30:08;;;;;;;4.88;2.60;;;;;;;;;;5034021;28;20451;-76
2023/01/27 03:32:34;;;;;;;4.35;2.60;;;;;;;;;;5034789;28;20041;-76
2023/01/27 03:35:01;;;;;;;4.90;2.50;;;;;;;;;;5034961;28;20404;-76
2023/01/27 03:48:35;;;;;;;4.90;2.33;;;;;;;;;;5022992;28;20484;-75
2023/01/27 03:51:02;;;;;;;5.90;2.78;;;;;;;;;;5033847;28;20083;-76
2023/01/27 03:53:28;;;;;;;6.82;2.30;;;;;;;;;;5028812;28;20476;-76
2023/01/27 03:55:54;;;;;;;3.83;2.38;;;;;;;;;;5030337;28;20072;-76
2023/01/27 03:58:28;;;;;;;5.05;2.25;;;;;;;;;;5014032;28;20133;-76
2023/01/27 04:01:02;;;;;;;4.90;2.42;;;;;;;;;;5034925;28;20395;-76
2023/01/27 04:09:00;;;;;;;6.28;3.28;;;;;;;;;;5016144;28;20054;-76
2023/01/27 04:14:12;;;;;;;6.82;3.35;;;;;;;;;;5027514;28;20124;-76
2023/01/27 04:16:38;;;;;;;10.95;3.30;;;;;;;;;;5030802;28;20121;-76
2023/01/27 04:19:05;;;;;;;3.88;3.10;;;;;;;;;;5031271;28;20052;-76
2023/01/27 04:21:31;;;;;;;6.20;3.40;;;;;;;;;;5030655;28;20096;-76
2023/01/27 04:23:57;;;;;;;4.78;3.30;;;;;;;;;;5034381;28;20052;-76
2023/01/27 04:26:23;;;;;;;6.07;3.50;;;;;;;;;;5019155;28;20093;-76
2023/01/27 04:28:49;;;;;;;7.10;3.50;;;;;;;;;;5024163;28;20041;-76
2023/01/27 04:31:16;;;;;;;6.80;3.67;;;;;;;;;;5033362;28;20129;-76
2023/01/27 04:33:42;;;;;;;5.38;3.45;;;;;;;;;;5028207;28;20040;-76
2023/01/27 04:36:08;;;;;;;7.60;3.60;;;;;;;;;;5026779;28;20452;-76
2023/01/27 04:38:34;;;;;;;9.45;4.57;;;;;;;;;;5014310;28;20041;-76
2023/01/27 04:41:00;;;;;;;6.32;3.95;;;;;;;;;;5030892;28;20092;-76
2023/01/27 04:43:26;;;;;;;7.63;4.32;;;;;;;;;;5015874;28;20053;-76
2023/01/27 04:45:53;;;;;;;8.82;4.28;;;;;;;;;;5022485;28;20049;-76
2023/01/27 04:48:19;;;;;;;7.38;4.13;;;;;;;;;;5030337;28;20092;-76
2023/01/27 04:50:45;;;;;;;5.15;3.72;;;;;;;;;;5030927;28;20073;-76
2023/01/27 04:53:11;;;;;;;7.88;4.90;;;;;;;;;;5033069;28;20121;-76
2023/01/27 04:55:37;;;;;;;7.15;4.80;;;;;;;;;;5029161;28;20535;-76
2023/01/27 04:58:03;;;;;;;6.65;4.93;;;;;;;;;;5028635;28;20468;-76
2023/01/27 05:00:30;;;;;;;7.13;5.00;;;;;;;;;;5027015;28;20041;-76
2023/01/27 05:02:56;;;;;;;8.02;4.50;;;;;;;;;;5033895;28;20191;-76
2023/01/27 05:05:22;;;;;;;9.05;4.50;;;;;;;;;;5015405;28;20045;-76
2023/01/27 05:07:48;;;;;;;8.48;4.00;;;;;;;;;;5033096;28;20041;-76
2023/01/27 05:10:14;;;;;;;5.90;3.83;;;;;;;;;;5024128;28;20083;-76
2023/01/27 05:12:40;;;;;;;4.55;3.85;;;;;;;;;;5034657;28;20042;-76
2023/01/27 05:15:06;;;;;;;6.78;4.10;;;;;;;;;;5030852;28;20048;-76
2023/01/27 05:17:33;;;;;;;10.57;4.07;;;;;;;;;;5033459;28;20038;-76
2023/01/27 05:19:59;;;;;;;7.72;4.25;;;;;;;;;;5032834;28;20124;-76
2023/01/27 05:22:25;;;;;;;6.15;4.00;;;;;;;;;;5029703;28;20046;-76
2023/01/27 05:24:51;;;;;;;4.88;3.95;;;;;;;;;;5022839;28;20073;-76
2023/01/27 05:27:17;;;;;;;7.32;3.58;;;;;;;;;;5024228;28;20057;-76
2023/01/27 05:29:43;;;;;;;6.60;3.70;;;;;;;;;;5028762;28;20550;-76
2023/01/27 05:32:09;;;;;;;4.75;2.90;;;;;;;;;;5024661;28;20540;-76
2023/01/27 05:34:36;;;;;;;5.78;2.65;;;;;;;;;;5019957;28;20121;-76
2023/01/27 05:37:02;;;;;;;4.45;2.70;;;;;;;;;;5021141;28;20415;-76
2023/01/27 05:39:28;;;;;;;6.07;2.92;;;;;;;;;;5018100;28;20049;-76
2023/01/27 05:41:54;;;;;;;4.30;2.70;;;;;;;;;;5022201;28;20090;-76
2023/01/27 05:44:20;;;;;;;6.70;2.90;;;;;;;;;;5029086;28;20048;-76
2023/01/27 05:46:46;;;;;;;3.38;2.33;;;;;;;;;;5033453;28;20057;-76
2023/01/27 05:49:12;;;;;;;6.88;2.88;;;;;;;;;;5032967;28;20053;-76
2023/01/27 05:51:39;;;;;;;3.85;2.63;;;;;;;;;;5032353;28;20042;-76
2023/01/27 05:54:05;;;;;;;4.35;2.17;;;;;;;;;;5033148;28;20048;-76
2023/01/27 05:56:31;;;;;;;4.28;2.15;;;;;;;;;;5021613;28;20050;-76
2023/01/27 05:58:58;;;;;;;2.65;2.00;;;;;;;;;;5031144;28;20389;-76
2023/01/27 06:01:25;;;;;;;5.75;2.78;;;;;;;;;;5028627;28;20057;-76
2023/01/27 06:03:51;;;;;;;2.97;2.08;;;;;;;;;;5012440;28;20084;-76
2023/01/27 06:06:18;;;;;;;7.95;2.60;;;;;;;;;;5031947;28;20124;-76
2023/01/27 06:08:44;;;;;;;4.50;2.08;;;;;;;;;;5040403;28;20538;-76
2023/01/27 06:11:11;;;;;;;5.63;2.45;;;;;;;;;;5025351;28;20049;-76
2023/01/27 06:13:37;;;;;;;6.93;2.42;;;;;;;;;;5020835;28;20042;-76
2023/01/27 06:16:04;;;;;;;4.88;2.10;;;;;;;;;;5026792;28;20046;-76
2023/01/27 06:18:31;;;;;;;4.05;2.15;;;;;;;;;;5030635;28;20073;-76
2023/01/27 06:20:57;;;;;;;3.00;2.15;;;;;;;;;;5029572;28;20049;-76
2023/01/27 06:23:23;;;;;;;3.30;2.25;;;;;;;;;;5036437;28;20045;-76
2023/01/27 06:25:50;;;;;;;4.50;2.15;;;;;;;;;;5032385;28;20045;-76
2023/01/27 06:28:17;;;;;;;5.68;2.20;;;;;;;;;;5026353;28;20060;-76
2023/01/27 06:30:43;;;;;;;2.92;2.20;;;;;;;;;;5033013;28;20038;-76
2023/01/27 06:33:09;;;;;;;6.05;2.30;;;;;;;;;;5035450;28;20103;-76
2023/01/27 06:35:36;;;;;;;4.63;2.20;;;;;;;;;;5023784;28;20111;-76
2023/01/27 06:38:02;;;;;;;6.25;2.33;;;;;;;;;;5029101;28;20045;-76
2023/01/27 06:40:30;;;;;;;4.72;2.10;;;;;;;;;;5028616;28;20073;-76
2023/01/27 06:42:56;;;;;;;4.20;2.00;;;;;;;;;;5001879;28;20049;-76
2023/01/27 06:45:22;;;;;;;5.10;2.17;;;;;;;;;;5028638;28;20045;-76
2023/01/27 06:47:55;;;;;;;5.28;2.28;;;;;;;;;;5034593;28;20103;-76
2023/01/27 06:50:22;;;;;;;4.82;2.40;;;;;;;;;;5035847;28;20041;-76
2023/01/27 06:52:48;;;;;;;8.68;2.47;;;;;;;;;;5020781;28;20053;-76
2023/01/27 06:55:15;;;;;;;5.35;2.28;;;;;;;;;;5029879;28;20046;-76
2023/01/27 06:57:41;;;;;;;4.00;2.15;;;;;;;;;;5035879;28;20045;-76
2023/01/27 07:00:07;;;;;;;4.05;2.47;;;;;;;;;;5035174;28;20049;-76
2023/01/27 07:02:33;;;;;;;8.73;2.50;;;;;;;;;;5023094;28;20064;-75
2023/01/27 07:04:59;;;;;;;4.45;2.47;;;;;;;;;;5030291;28;20356;-76
2023/01/27 07:07:25;;;;;;;4.57;2.22;;;;;;;;;;5025142;28;20110;-76
2023/01/27 07:09:51;;;;;;;4.00;2.50;;;;;;;;;;5032722;28;20124;-76
2023/01/27 07:12:17;;;;;;;4.90;2.30;;;;;;;;;;5035329;28;20068;-76
2023/01/27 07:14:44;;;;;;;4.45;1.90;;;;;;;;;;5034979;28;20045;-76
2023/01/27 07:17:10;;;;;;;4.30;2.25;;;;;;;;;;5034844;28;20408;-76
2023/01/27 07:19:36;;;;;;;5.07;2.10;;;;;;;;;;5034121;28;20049;-76
2023/01/27 07:22:02;;;;;;;4.07;2.00;;;;;;;;;;5022949;28;20060;-76
2023/01/27 07:24:28;;;;;;;2.92;1.90;;;;;;;;;;5025100;28;20050;-76
2023/01/27 07:26:54;;;;;;;5.70;2.22;;;;;;;;;;5024630;28;20034;-76
2023/01/27 07:29:20;;;;;;;3.33;2.15;;;;;;;;;;5030414;28;20471;-76
2023/01/27 07:31:46;;;;;;;3.58;2.25;;;;;;;;;;5030477;28;20476;-75
2023/01/27 07:34:12;;;;;;;3.10;1.90;;;;;;;;;;5023252;28;20042;-76
2023/01/27 07:36:38;;;;;;;3.70;2.50;;;;;;;;;;5030505;28;20057;-75
2023/01/27 07:39:04;;;;;;;3.80;2.20;;;;;;;;;;5029756;28;20152;-75
2023/01/27 07:41:30;;;;;;;4.20;2.30;;;;;;;;;;5034810;28;20346;-77
2023/01/27 07:43:56;;;;;;;2.55;1.95;;;;;;;;;;5034791;28;20049;-77
2023/01/27 07:46:22;;;;;;;5.22;2.10;;;;;;;;;;5033647;28;20472;-77
2023/01/27 07:48:48;;;;;;;4.75;2.15;;;;;;;;;;5025095;28;20054;-79
2023/01/27 07:51:15;;;;;;;3.47;1.88;;;;;;;;;;5033530;28;20480;-76
2023/01/27 07:53:41;;;;;;;3.67;1.88;;;;;;;;;;5034843;28;20080;-76
2023/01/27 07:56:10;;;;;;;3.60;2.25;;;;;;;;;;5035797;28;20041;-79
2023/01/27 07:58:39;;;;;;;3.08;2.25;;;;;;;;;;5016522;28;20463;-77
2023/01/27 08:01:09;;;;;;;4.75;1.70;;;;;;;;;;5018299;28;20045;-76
2023/01/27 08:03:35;;;;;;;2.05;1.70;;;;;;;;;;5023342;28;20041;-76
2023/01/27 08:06:06;;;;;;;4.78;1.90;;;;;;;;;;5034218;28;20550;-76
2023/01/27 08:08:32;;;;;;;2.28;2.08;;;;;;;;;;5033294;28;20518;-76
2023/01/27 08:11:08;;;;;;;2.80;1.88;;;;;;;;;;5023573;28;20484;-76
2023/01/27 08:13:35;;;;;;;4.05;1.70;;;;;;;;;;5033310;28;20033;-76
2023/01/27 08:16:04;;;;;;;2.92;1.70;;;;;;;;;;5006926;28;20045;-76
2023/01/27 08:18:32;;;;;;;2.92;1.73;;;;;;;;;;5018830;28;20412;-76
2023/01/27 08:20:59;;;;;;;2.28;1.77;;;;;;;;;;5029522;28;20085;-76
2023/01/27 08:23:25;;;;;;;3.95;1.90;;;;;;;;;;5028299;28;20175;-76
2023/01/27 08:25:52;;;;;;;2.85;1.75;;;;;;;;;;5032843;28;20488;-76
2023/01/27 08:28:19;;;;;;;2.83;2.05;;;;;;;;;;5033377;28;20049;-76
2023/01/27 08:30:45;;;;;;;10.07;2.10;;;;;;;;;;5022346;28;20169;-76
2023/01/27 08:33:11;;;;;;;2.20;1.67;;;;;;;;;;5033743;28;20100;-76
2023/01/27 08:35:38;;;;;;;3.33;1.80;;;;;;;;;;5034579;28;20052;-76
2023/01/27 08:38:04;;;;;;;3.25;1.73;;;;;;;;;;5030825;28;20049;-76
2023/01/27 08:40:31;;;;;;;3.50;1.70;;;;;;;;;;5046191;28;20056;-76
2023/01/27 08:42:57;;;;;;;3.08;1.50;;;;;;;;;;5033939;28;20107;-76
2023/01/27 08:45:23;;;;;;;2.92;1.90;;;;;;;;;;5028835;28;20116;-76
2023/01/27 08:47:49;;;;;;;3.35;2.17;;;;;;;;;;5028058;28;20077;-76
2023/01/27 08:50:15;;;;;;;3.20;1.70;;;;;;;;;;5021120;28;20523;-77
2023/01/27 08:52:41;;;;;;;4.82;1.80;;;;;;;;;;5022148;28;20037;-76
2023/01/27 08:55:07;;;;;;;3.78;1.95;;;;;;;;;;5034250;28;20053;-78
2023/01/27 08:57:33;;;;;;;3.58;1.70;;;;;;;;;;5033512;28;20087;-77
2023/01/27 08:59:59;;;;;;;2.40;1.70;;;;;;;;;;5019163;28;20069;-76
2023/01/27 09:02:25;;;;;;;2.50;1.60;;;;;;;;;;5019373;28;20044;-77
2023/01/27 09:04:52;;;;;;;3.55;1.70;;;;;;;;;;5019620;28;20097;-77
2023/01/27 09:07:18;;;;;;;4.57;1.52;;;;;;;;;;5017505;28;20038;-76
2023/01/27 09:09:47;;;;;;;2.80;1.60;;;;;;;;;;5025910;28;20124;-76
2023/01/27 09:12:14;;;;;;;2.42;1.80;;;;;;;;;;5021477;28;20081;-76
2023/01/27 09:14:40;;;;;;;1.30;1.20;;;;;;;;;;5028633;28;20041;-77
2023/01/27 09:17:06;;;;;;;5.10;2.00;;;;;;;;;;5033789;28;20045;-77
2023/01/27 09:19:32;;;;;;;4.78;1.55;;;;;;;;;;5022224;28;20125;-77
2023/01/27 09:21:58;;;;;;;1.45;1.30;;;;;;;;;;5014393;28;20245;-77
2023/01/27 09:24:24;;;;;;;3.05;1.40;;;;;;;;;;5027016;28;20038;-77
2023/01/27 09:26:50;;;;;;;1.85;1.30;;;;;;;;;;5033504;28;20099;-77
2023/01/27 09:29:16;;;;;;;3.35;1.55;;;;;;;;;;5020223;28;20175;-77
2023/01/27 09:31:42;;;;;;;8.35;1.95;;;;;;;;;;5031027;28;20045;-77
2023/01/27 09:34:08;;;;;;;1.80;1.50;;;;;;;;;;5026887;28;20042;-77
2023/01/27 09:36:38;;;;;;;2.42;1.92;;;;;;;;;;5023340;28;20046;-77
2023/01/27 09:39:06;;;;;;;1.65;1.40;;;;;;;;;;5033582;28;20046;-77
2023/01/27 09:41:38;;;;;;;2.45;1.50;;;;;;;;;;5036518;28;20445;-77
2023/01/27 09:44:10;;;;;;;1.55;1.33;;;;;;;;;;5036576;28;20119;-77
2023/01/27 09:46:51;;;;;;;4.32;1.88;;;;;;;;;;5025137;28;20095;-77
2023/01/27 09:49:29;;;;;;;3.17;1.50;;;;;;;;;;5022525;28;20053;-77
2023/01/27 09:52:13;;;;;;;3.78;1.80;;;;;;;;;;5028980;28;20493;-77
2023/01/27 09:54:39;;;;;;;1.55;1.45;;;;;;;;;;5035461;28;20041;-77
2023/01/27 09:57:26;;;;;;;2.03;1.30;;;;;;;;;;5036450;28;20042;-77
2023/01/27 10:00:15;;;;;;;1.60;1.45;;;;;;;;;;5033495;28;20037;-77
2023/01/27 10:02:44;;;;;;;1.90;1.63;;;;;;;;;;5019349;28;20125;-77
2023/01/27 10:05:13;;;;;;;2.38;1.40;;;;;;;;;;5033650;28;20179;-77
2023/01/27 10:07:42;;;;;;;3.33;1.33;;;;;;;;;;5034050;28;20546;-77
2023/01/27 10:10:18;;;;;;;1.85;1.50;;;;;;;;;;5035407;28;20055;-77
2023/01/27 10:12:59;;;;;;;2.33;1.40;;;;;;;;;;5036859;28;20037;-77
2023/01/27 10:15:43;;;;;;;3.63;1.40;;;;;;;;;;5027854;28;20431;-76
2023/01/27 10:18:28;;;;;;;1.95;1.50;;;;;;;;;;5023454;28;20045;-77
2023/01/27 10:21:04;;;;;;;2.72;1.50;;;;;;;;;;5027632;28;20046;-78
2023/01/27 10:23:31;;;;;;;2.47;1.20;;;;;;;;;;5036868;28;20045;-78
2023/01/27 10:25:57;;;;;;;3.38;1.40;;;;;;;;;;5036211;28;20060;-78
2023/01/27 10:28:24;;;;;;;2.20;1.35;;;;;;;;;;5035198;28;20053;-78
2023/01/27 10:30:59;;;;;;;2.30;1.60;;;;;;;;;;5018231;28;20099;-78
2023/01/27 10:33:31;;;;;;;2.47;1.50;;;;;;;;;;5034481;28;20467;-77
2023/01/27 10:35:58;;;;;;;1.90;1.38;;;;;;;;;;5027541;28;20500;-78
2023/01/27 10:38:28;;;;;;;3.47;1.70;;;;;;;;;;5029179;28;20160;-77
2023/01/27 10:41:24;;;;;;;3.10;1.48;;;;;;;;;;5035731;28;20072;-78
2023/01/27 10:44:11;;;;;;;3.83;1.80;;;;;;;;;;5036127;28;20130;-78
2023/01/27 10:46:39;;;;;;;4.68;1.75;;;;;;;;;;5035960;28;20128;-77
2023/01/27 10:49:27;;;;;;;4.30;1.67;;;;;;;;;;5034588;28;20053;-78
2023/01/27 10:51:59;;;;;;;2.45;1.20;;;;;;;;;;5034956;28;20045;-78
2023/01/27 10:54:32;;;;;;;2.45;1.10;;;;;;;;;;5020609;28;20049;-77
2023/01/27 10:57:01;;;;;;;;;;;;;;;;;;5015207;28;20046;-78
2023/01/27 10:59:30;;;;;;;1.80;1.20;;;;;;;;;;5016158;28;19928;-78
2023/01/27 11:01:59;;;;;;;2.67;1.08;;;;;;;;;;5030392;28;20413;-79
2023/01/27 11:04:25;;;;;;;1.33;1.23;;;;;;;;;;5034478;28;20057;-77
2023/01/27 11:06:52;;;;;;;4.07;1.45;;;;;;;;;;5013594;28;20053;-78
2023/01/27 11:09:33;;;;;;;1.85;1.48;;;;;;;;;;5025293;28;20500;-77
2023/01/27 11:12:01;;;;;;;3.95;1.55;;;;;;;;;;5018211;28;20053;-77
2023/01/27 11:14:31;;;;;;;3.35;1.33;;;;;;;;;;5016090;28;20100;-77
2023/01/27 11:17:12;;;;;;;1.90;1.52;;;;;;;;;;5026019;28;20038;-77
2023/01/27 11:19:42;;;;;;;3.20;1.75;;;;;;;;;;5016153;28;20053;-77
2023/01/27 11:22:17;;;;;;;2.80;1.70;;;;;;;;;;5035783;28;20121;-77
2023/01/27 11:24:45;;;;;;;2.53;1.73;;;;;;;;;;5020336;28;20511;-77
2023/01/27 11:27:32;;;;;;;3.85;1.90;;;;;;;;;;5029262;28;20518;-77
2023/01/27 11:30:01;;;;;;;4.13;1.73;;;;;;;;;;5027003;28;20046;-77
2023/01/27 11:32:33;;;;;;;3.40;1.70;;;;;;;;;;5014103;28;20412;-78
2023/01/27 11:35:10;;;;;;;2.22;2.03;;;;;;;;;;5027392;28;20052;-80
2023/01/27 11:37:36;;;;;;;2.88;1.70;;;;;;;;;;5020090;28;20045;-78
2023/01/27 11:40:02;;;;;;;1.73;1.40;;;;;;;;;;5020586;28;20049;-79
2023/01/27 11:42:34;;;;;;;2.67;1.83;;;;;;;;;;5035172;28;20064;-79
2023/01/27 11:45:01;;;;;;;3.38;1.73;;;;;;;;;;5045690;28;20479;-79
2023/01/27 11:47:32;;;;;;;1.55;1.30;;;;;;;;;;5031323;28;20054;-79
2023/01/27 11:49:59;;;;;;;3.42;1.50;;;;;;;;;;5015103;28;20053;-79
2023/01/27 11:52:27;;;;;;;2.60;1.60;;;;;;;;;;5014383;28;20077;-79
2023/01/27 11:55:12;;;;;;;2.90;1.80;;;;;;;;;;5016970;28;20523;-79
2023/01/27 11:57:41;;;;;;;4.13;1.42;;;;;;;;;;5013911;28;20057;-79
2023/01/27 12:00:25;;;;;;;3.53;1.52;;;;;;;;;;5014248;28;20092;-79
2023/01/27 12:02:54;;;;;;;2.78;1.42;;;;;;;;;;5026425;28;20046;-79
2023/01/27 12:05:26;;;;;;;3.47;1.20;;;;;;;;;;5034017;28;20041;-79
2023/01/27 12:07:56;;;;;;;1.70;1.45;;;;;;;;;;5035248;28;20038;-79
2023/01/27 12:10:26;;;;;;;1.17;1.05;;;;;;;;;;5022848;28;20100;-79
2023/01/27 12:12:53;;;;;;;1.48;1.30;;;;;;;;;;5026508;28;20492;-79
2023/01/27 12:15:19;;;;;;;2.58;1.50;;;;;;;;;;5033335;28;20049;-79
2023/01/27 12:17:50;;;;;;;1.63;1.20;;;;;;;;;;5034379;28;20052;-79
2023/01/27 12:20:36;;;;;;;1.27;1.17;;;;;;;;;;5033191;28;20136;-79
2023/01/27 12:23:02;;;;;;;;;;;;;;;;;;5035096;28;20057;-79
2023/01/27 12:25:31;;;;;;;1.00;1.00;;;;;;;;;;5038049;28;19921;-80
2023/01/27 12:28:02;;;;;;;5.57;1.50;;;;;;;;;;5035455;28;20471;-79
2023/01/27 12:30:31;;;;;;;1.65;1.20;;;;;;;;;;5043765;28;20053;-80
2023/01/27 12:32:58;;;;;;;2.83;1.27;;;;;;;;;;5044179;28;20049;-79
2023/01/27 12:35:32;;;;;;;2.28;1.33;;;;;;;;;;5040291;28;20049;-80
2023/01/27 12:38:01;;;;;;;2.55;1.55;;;;;;;;;;5037543;28;20068;-79
2023/01/27 12:40:28;;;;;;;3.03;1.60;;;;;;;;;;4998319;28;20132;-80
2023/01/27 12:43:13;;;;;;;2.45;1.50;;;;;;;;;;5024809;28;20396;-80
2023/01/27 12:45:39;;;;;;;2.22;1.73;;;;;;;;;;5019823;28;20050;-80
2023/01/27 12:48:08;;;;;;;2.17;1.60;;;;;;;;;;5017614;28;20496;-80
2023/01/27 12:50:37;;;;;;;2.92;2.00;;;;;;;;;;5050080;28;20051;-79
2023/01/27 12:53:14;;;;;;;2.67;1.50;;;;;;;;;;5040182;28;20128;-80
2023/01/27 12:55:40;;;;;;;1.75;1.40;;;;;;;;;;5032726;28;20054;-79
2023/01/27 12:58:22;;;;;;;2.47;1.50;;;;;;;;;;5021137;28;20132;-79
2023/01/27 13:00:48;;;;;;;2.63;1.80;;;;;;;;;;5014146;28;20097;-79
2023/01/27 13:03:14;;;;;;;4.28;1.95;;;;;;;;;;5012955;28;20054;-80
2023/01/27 13:05:42;;;;;;;3.17;1.80;;;;;;;;;;5013816;28;20073;-79
2023/01/27 13:08:16;;;;;;;1.65;1.50;;;;;;;;;;5014581;28;20045;-79
2023/01/27 13:10:52;;;;;;;2.22;1.60;;;;;;;;;;5013758;28;20129;-79
2023/01/27 13:13:22;;;;;;;1.33;1.23;;;;;;;;;;5013598;28;20096;-79
2023/01/27 13:16:04;;;;;;;1.60;1.15;;;;;;;;;;5013571;28;20046;-79
2023/01/27 13:18:34;;;;;;;2.25;1.17;;;;;;;;;;5013914;28;20037;-79
2023/01/27 13:21:13;;;;;;;2.22;1.30;;;;;;;;;;5015393;28;20061;-79
2023/01/27 13:23:40;;;;;;;2.80;1.20;;;;;;;;;;5021499;28;20173;-79
2023/01/27 13:26:06;;;;;;;0.80;0.80;;;;;;;;;;5017494;28;20041;-79
2023/01/27 13:28:38;;;;;;;1.40;1.10;;;;;;;;;;5047290;28;20554;-79
2023/01/27 13:31:11;;;;;;;1.80;0.95;;;;;;;;;;5033441;28;20038;-79
2023/01/27 13:33:42;;;;;;;0.80;0.80;;;;;;;;;;5026286;28;20041;-79
2023/01/27 13:36:14;;;;;;;1.40;0.80;;;;;;;;;;4995752;28;20136;-79
2023/01/27 13:38:49;;;;;;;1.33;1.23;;;;;;;;;;5023052;28;20183;-79
2023/01/27 13:41:26;;;;;;;1.40;1.30;;;;;;;;;;5028680;28;20137;-79
2023/01/27 13:43:56;;;;;;;1.40;1.30;;;;;;;;;;5018772;28;20088;-77
2023/01/27 13:46:29;;;;;;;2.38;1.20;;;;;;;;;;5015283;28;20050;-76
2023/01/27 13:48:57;;;;;;;1.10;1.00;;;;;;;;;;5023988;28;20045;-77
2023/01/27 13:51:29;;;;;;;0.88;0.88;;;;;;;;;;5023532;28;20086;-77
2023/01/27 13:54:00;;;;;;;1.33;1.10;;;;;;;;;;5021725;28;20052;-76
2023/01/27 13:56:29;;;;;;;1.00;0.90;;;;;;;;;;5030148;28;20076;-77
2023/01/27 13:58:55;;;;;;;1.58;1.02;;;;;;;;;;5018593;28;20118;-76
2023/01/27 14:01:24;;;;;;;0.98;0.90;;;;;;;;;;5031100;28;20139;-77
2023/01/27 14:03:56;;;;;;;1.27;1.00;;;;;;;;;;5032752;28;20184;-77
2023/01/27 14:06:34;;;;;;;2.22;1.00;;;;;;;;;;5029678;28;20046;-77
2023/01/27 14:09:00;;;;;;;1.23;1.13;;;;;;;;;;5019278;28;20101;-77
2023/01/27 14:11:34;;;;;;;2.58;1.00;;;;;;;;;;5029191;28;20046;-76
2023/01/27 14:14:14;;;;;;;3.45;1.08;;;;;;;;;;5033130;28;20042;-77
2023/01/27 14:16:40;;;;;;;1.63;1.00;;;;;;;;;;5028080;28;20422;-76
2023/01/27 14:19:15;;;;;;;1.10;1.10;;;;;;;;;;5023569;28;20049;-77
2023/01/27 14:22:04;;;;;;;1.13;1.02;;;;;;;;;;5026034;28;20049;-77
2023/01/27 14:24:44;;;;;;;2.17;1.45;;;;;;;;;;5022796;28;20088;-77
2023/01/27 14:27:14;;;;;;;2.03;1.30;;;;;;;;;;5022259;28;20078;-76
2023/01/27 14:29:53;;;;;;;1.20;1.10;;;;;;;;;;5017250;28;20046;-76
2023/01/27 14:32:31;;;;;;;1.80;1.08;;;;;;;;;;5019158;28;20046;-76
2023/01/27 14:35:16;;;;;;;1.15;1.00;;;;;;;;;;5036871;28;20049;-79
2023/01/27 14:38:05;;;;;;;4.35;1.25;;;;;;;;;;5032345;28;20046;-78
2023/01/27 14:40:49;;;;;;;2.75;1.20;;;;;;;;;;5036074;28;20049;-79
2023/01/27 14:43:24;;;;;;;1.95;1.25;;;;;;;;;;5036221;28;20041;-79
2023/01/27 14:45:57;;;;;;;1.85;1.30;;;;;;;;;;5036772;28;20084;-79
2023/01/27 14:48:46;;;;;;;2.50;1.20;;;;;;;;;;5029041;28;20050;-78
2023/01/27 14:51:12;;;;;;;1.25;1.10;;;;;;;;;;5023321;28;20053;-76
2023/01/27 14:53:55;;;;;;;2.42;1.15;;;;;;;;;;5036780;28;20099;-77
2023/01/27 14:56:45;;;;;;;2.70;1.38;;;;;;;;;;5035879;28;20124;-76
2023/01/27 14:59:11;;;;;;;1.77;1.10;;;;;;;;;;5034688;28;20411;-76
2023/01/27 15:01:45;;;;;;;2.40;1.23;;;;;;;;;;5022465;28;20500;-75
2023/01/27 15:04:14;;;;;;;2.85;1.27;;;;;;;;;;5019693;28;20050;-80
2023/01/27 15:06:47;;;;;;;2.47;1.00;;;;;;;;;;5024574;28;20104;-76
2023/01/27 15:09:22;;;;;;;1.65;0.82;;;;;;;;;;5031657;28;20042;-76
2023/01/27 15:11:50;;;;;;;1.50;1.10;;;;;;;;;;5035210;28;20044;-76
2023/01/27 15:14:16;;;;;;;1.50;0.95;;;;;;;;;;5018769;28;20049;-76
2023/01/27 15:16:42;;;;;;;1.20;1.10;;;;;;;;;;5028056;28;20045;-76
2023/01/27 15:19:32;;;;;;;1.45;1.00;;;;;;;;;;5025322;28;20037;-76
2023/01/27 15:22:16;;;;;;;1.00;1.00;;;;;;;;;;4961626;28;20053;-76
2023/01/27 15:25:05;;;;;;;3.35;1.30;;;;;;;;;;4977219;28;20040;-77
2023/01/27 15:27:33;;;;;;;2.33;1.30;;;;;;;;;;4971898;28;20053;-76
2023/01/27 15:30:06;;;;;;;1.30;1.20;;;;;;;;;;4950210;28;20082;-76
2023/01/27 15:32:36;;;;;;;2.30;1.20;;;;;;;;;;4973495;28;20046;-76